createdAt,value
2017-08-29T00:00:29.317Z,16.50
2017-08-29T00:02:55.388Z,16.50
2017-08-29T00:05:21.425Z,16.50
2017-08-29T00:07:47.424Z,16.50
2017-08-29T00:10:13.588Z,16.50
2017-08-29T00:12:39.644Z,16.50
2017-08-29T00:15:05.684Z,16.40
2017-08-29T00:17:31.729Z,16.40
2017-08-29T00:19:57.752Z,16.40
2017-08-29T00:22:23.796Z,16.40
2017-08-29T00:24:50.126Z,16.40
2017-08-29T00:27:16.132Z,16.40
2017-08-29T00:29:42.157Z,16.40
2017-08-29T00:32:08.256Z,16.30
2017-08-29T00:34:34.290Z,16.40
2017-08-29T00:37:00.308Z,16.40
2017-08-29T00:39:26.374Z,16.30
2017-08-29T00:41:52.408Z,16.30
2017-08-29T00:44:18.803Z,16.30
2017-08-29T00:46:44.852Z,16.30
2017-08-29T00:49:10.893Z,16.20
2017-08-29T00:51:36.937Z,16.30
2017-08-29T00:54:02.984Z,16.20
2017-08-29T00:56:29.025Z,16.30
2017-08-29T00:58:55.040Z,16.30
2017-08-29T01:01:21.268Z,16.30
2017-08-29T01:03:47.297Z,16.20
2017-08-29T01:06:13.587Z,16.10
2017-08-29T01:08:39.614Z,16.10
2017-08-29T01:11:05.657Z,16.10
2017-08-29T01:13:31.723Z,16.10
2017-08-29T01:15:57.818Z,16.10
2017-08-29T01:18:23.896Z,16.10
2017-08-29T01:20:49.943Z,16.10
2017-08-29T01:23:16.180Z,16.10
2017-08-29T01:25:42.225Z,16.10
2017-08-29T01:28:08.249Z,16.10
2017-08-29T01:30:34.447Z,16.10
2017-08-29T01:33:00.533Z,16.10
2017-08-29T01:35:26.604Z,16.20
2017-08-29T01:37:52.679Z,16.10
2017-08-29T01:40:18.728Z,16.10
2017-08-29T01:42:44.736Z,16.10
2017-08-29T01:45:10.812Z,16.10
2017-08-29T01:47:36.877Z,16.20
2017-08-29T01:50:02.939Z,16.20
2017-08-29T01:52:29.022Z,16.10
2017-08-29T01:54:55.040Z,16.00
2017-08-29T01:57:21.106Z,16.10
2017-08-29T01:59:47.145Z,16.00
2017-08-29T02:02:13.168Z,15.90
2017-08-29T02:04:39.220Z,15.90
2017-08-29T02:07:05.317Z,15.90
2017-08-29T02:09:31.341Z,15.90
2017-08-29T02:11:57.379Z,15.90
2017-08-29T02:14:23.425Z,15.90
2017-08-29T02:16:49.462Z,15.90
2017-08-29T02:19:15.503Z,15.90
2017-08-29T02:21:41.543Z,15.80
2017-08-29T02:24:07.580Z,15.80
2017-08-29T02:26:33.580Z,15.80
2017-08-29T02:28:59.640Z,15.70
2017-08-29T02:31:25.662Z,15.70
2017-08-29T02:33:51.677Z,15.70
2017-08-29T02:36:17.730Z,15.70
2017-08-29T02:38:43.782Z,15.70
2017-08-29T02:41:09.852Z,15.70
2017-08-29T02:43:35.892Z,15.70
2017-08-29T02:46:01.944Z,15.70
2017-08-29T02:48:28.009Z,15.70
2017-08-29T02:50:54.021Z,15.70
2017-08-29T02:53:20.037Z,15.60
2017-08-29T02:55:46.232Z,15.60
2017-08-29T02:58:12.249Z,15.50
2017-08-29T03:00:38.248Z,15.60
2017-08-29T03:03:04.277Z,15.60
2017-08-29T03:05:30.274Z,15.50
2017-08-29T03:07:56.296Z,15.50
2017-08-29T03:10:22.581Z,15.60
2017-08-29T03:12:48.608Z,15.60
2017-08-29T03:15:14.624Z,15.60
2017-08-29T03:17:40.637Z,15.60
2017-08-29T03:20:06.654Z,15.50
2017-08-29T03:22:33.122Z,15.50
2017-08-29T03:24:59.149Z,15.60
2017-08-29T03:27:25.137Z,15.50
2017-08-29T03:29:51.334Z,15.50
2017-08-29T03:32:17.346Z,15.40
2017-08-29T03:34:43.389Z,15.40
2017-08-29T03:37:09.416Z,15.30
2017-08-29T03:39:35.432Z,15.30
2017-08-29T03:42:01.441Z,15.20
2017-08-29T03:44:27.469Z,15.20
2017-08-29T03:46:53.520Z,15.20
2017-08-29T03:49:19.536Z,15.20
2017-08-29T03:51:45.643Z,15.10
2017-08-29T03:54:11.675Z,15.10
2017-08-29T03:56:37.709Z,15.10
2017-08-29T03:59:03.728Z,15.10
2017-08-29T04:01:29.809Z,15.10
2017-08-29T04:03:55.841Z,15.10
2017-08-29T04:06:21.872Z,15.10
2017-08-29T04:08:47.894Z,15.10
2017-08-29T04:11:13.913Z,15.20
2017-08-29T04:13:39.950Z,15.10
2017-08-29T04:16:05.964Z,15.10
2017-08-29T04:18:31.983Z,15.10
2017-08-29T04:20:58.017Z,15.10
2017-08-29T04:23:24.026Z,15.00
2017-08-29T04:25:50.055Z,15.00
2017-08-29T04:28:16.061Z,15.00
2017-08-29T04:30:42.101Z,15.10
2017-08-29T04:33:08.173Z,15.10
2017-08-29T04:35:34.189Z,15.10
2017-08-29T04:38:00.218Z,15.20
2017-08-29T04:40:26.286Z,15.20
2017-08-29T04:42:52.285Z,15.20
2017-08-29T04:45:18.298Z,15.30
2017-08-29T04:47:44.569Z,15.20
2017-08-29T04:50:10.577Z,15.20
2017-08-29T04:52:36.619Z,15.20
2017-08-29T04:55:02.917Z,15.30
2017-08-29T04:57:28.925Z,15.30
2017-08-29T04:59:54.946Z,15.30
2017-08-29T05:02:20.986Z,15.30
2017-08-29T05:04:47.017Z,15.30
2017-08-29T05:07:13.042Z,15.30
2017-08-29T05:09:39.077Z,15.30
2017-08-29T05:12:05.137Z,15.30
2017-08-29T05:14:31.150Z,15.30
2017-08-29T05:16:57.160Z,15.40
2017-08-29T05:19:23.193Z,15.40
2017-08-29T05:21:49.212Z,15.50
2017-08-29T05:24:15.233Z,15.40
2017-08-29T05:26:41.257Z,15.60
2017-08-29T05:29:07.329Z,15.70
2017-08-29T05:31:33.338Z,15.70
2017-08-29T05:33:59.436Z,15.60
2017-08-29T05:36:25.481Z,15.70
2017-08-29T05:38:51.497Z,15.80
2017-08-29T05:41:17.536Z,15.90
2017-08-29T05:43:43.861Z,15.90
2017-08-29T05:46:09.872Z,16.00
2017-08-29T05:48:35.900Z,16.00
2017-08-29T05:51:01.978Z,15.90
2017-08-29T05:53:27.993Z,16.00
2017-08-29T05:55:54.014Z,16.10
2017-08-29T05:58:20.076Z,16.10
2017-08-29T06:00:46.097Z,16.20
2017-08-29T06:03:12.105Z,16.10
2017-08-29T06:05:38.364Z,16.10
2017-08-29T06:08:04.429Z,16.30
2017-08-29T06:10:30.432Z,16.30
2017-08-29T06:12:56.680Z,16.40
2017-08-29T06:15:22.717Z,16.40
2017-08-29T06:17:48.769Z,16.40
2017-08-29T06:20:14.807Z,16.40
2017-08-29T06:22:40.812Z,16.40
2017-08-29T06:25:07.101Z,16.50
2017-08-29T06:27:33.139Z,16.50
2017-08-29T06:29:59.197Z,16.50
2017-08-29T06:32:25.216Z,16.50
2017-08-29T06:34:51.238Z,16.50
2017-08-29T06:37:17.280Z,16.60
2017-08-29T06:39:43.289Z,16.60
2017-08-29T06:42:09.399Z,16.70
2017-08-29T06:44:35.424Z,16.80
2017-08-29T06:47:01.431Z,16.80
2017-08-29T06:49:27.445Z,16.80
2017-08-29T06:51:53.493Z,16.80
2017-08-29T06:54:19.508Z,16.90
2017-08-29T06:56:45.520Z,16.90
2017-08-29T06:59:11.589Z,16.80
2017-08-29T07:01:37.590Z,16.90
2017-08-29T07:04:03.633Z,17.00
2017-08-29T07:06:29.964Z,17.00
2017-08-29T07:08:55.983Z,17.10
2017-08-29T07:11:22.033Z,17.20
2017-08-29T07:13:48.366Z,17.20
2017-08-29T07:16:14.414Z,17.40
2017-08-29T07:18:40.423Z,17.40
2017-08-29T07:21:06.617Z,17.40
2017-08-29T07:23:32.637Z,17.40
2017-08-29T07:25:58.689Z,17.40
2017-08-29T07:28:24.743Z,17.60
2017-08-29T07:30:50.772Z,17.60
2017-08-29T07:33:16.801Z,17.60
2017-08-29T07:35:43.080Z,17.70
2017-08-29T07:38:09.086Z,17.90
2017-08-29T07:40:35.109Z,17.90
2017-08-29T07:43:01.184Z,17.90
2017-08-29T07:45:27.217Z,18.00
2017-08-29T07:47:53.253Z,18.10
2017-08-29T07:50:19.348Z,18.10
2017-08-29T07:52:45.356Z,18.20
2017-08-29T07:55:11.380Z,18.30
2017-08-29T07:57:37.638Z,18.40
2017-08-29T08:00:03.651Z,18.50
2017-08-29T08:02:29.691Z,18.50
2017-08-29T08:04:55.760Z,18.50
2017-08-29T08:07:21.800Z,18.60
2017-08-29T08:09:48.009Z,18.60
2017-08-29T08:12:14.041Z,18.50
2017-08-29T08:14:40.305Z,18.60
2017-08-29T08:17:06.337Z,18.70
2017-08-29T08:19:32.380Z,18.90
2017-08-29T08:21:58.389Z,19.00
2017-08-29T08:24:24.405Z,19.00
2017-08-29T08:26:50.450Z,19.00
2017-08-29T08:29:16.705Z,19.10
2017-08-29T08:31:42.713Z,19.10
2017-08-29T08:34:09.093Z,19.20
2017-08-29T08:36:35.169Z,19.30
2017-08-29T08:39:01.176Z,19.30
2017-08-29T08:41:27.247Z,19.30
2017-08-29T08:43:53.283Z,19.40
2017-08-29T08:46:19.352Z,19.50
2017-08-29T08:48:45.370Z,19.70
2017-08-29T08:51:11.409Z,19.80
2017-08-29T08:53:37.525Z,19.80
2017-08-29T08:56:03.580Z,19.90
2017-08-29T08:58:29.620Z,19.90
2017-08-29T09:00:55.645Z,20.00
2017-08-29T09:03:21.956Z,20.10
2017-08-29T09:05:48.017Z,20.10
2017-08-29T09:08:14.080Z,20.30
2017-08-29T09:10:40.371Z,20.40
2017-08-29T09:13:06.401Z,20.50
2017-08-29T09:15:32.404Z,20.50
2017-08-29T09:17:58.476Z,20.60
2017-08-29T09:20:24.500Z,20.70
2017-08-29T09:22:50.498Z,20.80
2017-08-29T09:25:16.761Z,20.90
2017-08-29T09:27:42.769Z,21.00
2017-08-29T09:30:08.832Z,21.10
2017-08-29T09:32:34.877Z,21.20
2017-08-29T09:35:00.923Z,21.30
2017-08-29T09:37:26.944Z,21.30
2017-08-29T09:39:53.190Z,21.50
2017-08-29T09:42:19.200Z,21.90
2017-08-29T09:44:45.236Z,23.00
2017-08-29T09:47:11.285Z,24.40
2017-08-29T09:49:37.304Z,25.90
2017-08-29T09:52:03.323Z,26.30
2017-08-29T09:54:29.381Z,26.30
2017-08-29T09:56:55.438Z,27.20
2017-08-29T09:59:21.487Z,27.60
2017-08-29T10:01:47.550Z,28.20
2017-08-29T10:04:13.565Z,28.70
2017-08-29T10:06:39.612Z,29.40
2017-08-29T10:09:05.864Z,29.10
2017-08-29T10:11:31.961Z,28.80
2017-08-29T10:13:58.007Z,28.10
2017-08-29T10:16:24.041Z,28.50
2017-08-29T10:18:50.056Z,28.60
2017-08-29T10:21:16.098Z,28.90
2017-08-29T10:23:42.137Z,29.10
2017-08-29T10:26:08.151Z,29.20
2017-08-29T10:28:34.169Z,28.00
2017-08-29T10:31:00.459Z,28.50
2017-08-29T10:33:26.496Z,29.10
2017-08-29T10:35:52.509Z,29.80
2017-08-29T10:38:18.580Z,29.90
2017-08-29T10:40:44.569Z,30.00
2017-08-29T10:43:10.564Z,30.10
2017-08-29T10:45:36.604Z,30.10
2017-08-29T10:48:02.629Z,29.70
2017-08-29T10:50:28.653Z,29.20
2017-08-29T10:52:54.860Z,29.00
2017-08-29T10:55:20.881Z,29.00
2017-08-29T10:57:46.919Z,28.50
2017-08-29T11:00:12.940Z,28.10
2017-08-29T11:02:38.964Z,27.70
2017-08-29T11:05:04.982Z,27.60
2017-08-29T11:07:31.017Z,27.70
2017-08-29T11:09:57.052Z,27.50
2017-08-29T11:12:23.085Z,27.40
2017-08-29T11:14:49.165Z,27.50
2017-08-29T11:17:15.185Z,26.60
2017-08-29T11:19:41.208Z,26.50
2017-08-29T11:22:08.746Z,26.30
2017-08-29T11:24:35.165Z,26.40
2017-08-29T11:27:01.218Z,26.10
2017-08-29T11:29:27.542Z,25.90
2017-08-29T11:31:53.589Z,25.70
2017-08-29T11:34:19.618Z,25.80
2017-08-29T11:36:45.665Z,25.70
2017-08-29T11:39:11.733Z,25.80
2017-08-29T11:41:37.765Z,25.80
2017-08-29T11:44:11.616Z,25.70
2017-08-29T11:46:37.637Z,25.90
2017-08-29T11:49:03.682Z,26.00
2017-08-29T11:51:29.739Z,25.90
2017-08-29T11:53:55.821Z,25.80
2017-08-29T11:56:21.849Z,25.80
2017-08-29T11:58:47.902Z,25.90
2017-08-29T12:01:13.962Z,26.00
2017-08-29T12:03:39.994Z,26.10
2017-08-29T12:06:06.044Z,26.20
2017-08-29T12:08:32.118Z,26.30
2017-08-29T12:10:58.145Z,26.40
2017-08-29T12:13:24.187Z,26.50
2017-08-29T12:15:50.272Z,26.70
2017-08-29T12:18:16.312Z,26.70
2017-08-29T12:20:42.387Z,26.90
2017-08-29T12:23:08.422Z,27.00
2017-08-29T12:25:34.441Z,27.20
2017-08-29T12:28:00.476Z,27.20
2017-08-29T12:30:26.535Z,26.90
2017-08-29T12:32:52.551Z,27.00
2017-08-29T12:35:18.603Z,27.10
2017-08-29T12:37:44.636Z,27.00
2017-08-29T12:40:10.651Z,27.20
2017-08-29T12:42:36.669Z,27.20
2017-08-29T12:45:02.995Z,27.20
2017-08-29T12:47:29.052Z,27.10
2017-08-29T12:49:55.076Z,27.10
2017-08-29T12:52:21.113Z,27.00
2017-08-29T12:54:47.132Z,27.00
2017-08-29T12:57:13.160Z,27.00
2017-08-29T12:59:39.256Z,27.00
2017-08-29T13:02:05.286Z,27.00
2017-08-29T13:04:31.321Z,27.10
2017-08-29T13:06:57.404Z,27.10
2017-08-29T13:09:23.425Z,27.00
2017-08-29T13:11:49.469Z,26.90
2017-08-29T13:14:15.572Z,27.00
2017-08-29T13:16:41.593Z,26.90
2017-08-29T13:19:07.626Z,26.90
2017-08-29T13:21:33.741Z,26.90
2017-08-29T13:23:59.961Z,27.00
2017-08-29T13:26:26.410Z,27.00
2017-08-29T13:28:52.485Z,26.80
2017-08-29T13:31:18.604Z,26.80
2017-08-29T13:33:46.507Z,27.00
2017-08-29T13:36:12.557Z,27.00
2017-08-29T13:38:38.689Z,27.00
2017-08-29T13:41:04.717Z,26.90
2017-08-29T13:43:30.883Z,26.80
2017-08-29T13:45:56.925Z,26.80
2017-08-29T13:48:22.943Z,26.80
2017-08-29T13:50:49.027Z,26.80
2017-08-29T13:53:15.081Z,26.70
2017-08-29T13:55:41.086Z,26.70
2017-08-29T13:58:07.113Z,26.70
2017-08-29T14:00:33.566Z,26.60
2017-08-29T14:02:59.588Z,26.60
2017-08-29T14:05:25.613Z,26.60
2017-08-29T14:07:51.718Z,26.60
2017-08-29T14:10:17.793Z,26.50
2017-08-29T14:12:44.624Z,26.50
2017-08-29T14:15:11.145Z,26.50
2017-08-29T14:17:37.165Z,26.50
2017-08-29T14:20:03.221Z,26.60
2017-08-29T14:22:29.342Z,26.50
2017-08-29T14:24:55.378Z,26.50
2017-08-29T14:27:22.175Z,26.50
2017-08-29T14:29:48.245Z,26.50
2017-08-29T14:32:14.312Z,26.40
2017-08-29T14:34:40.318Z,26.50
2017-08-29T14:37:06.385Z,26.40
2017-08-29T14:39:32.761Z,26.40
2017-08-29T14:41:58.817Z,26.30
2017-08-29T14:44:24.826Z,26.20
2017-08-29T14:47:03.732Z,26.20
2017-08-29T14:49:29.755Z,26.20
2017-08-29T14:51:55.773Z,26.20
2017-08-29T14:54:21.800Z,26.20
2017-08-29T14:56:47.821Z,26.30
2017-08-29T14:59:13.836Z,26.30
2017-08-29T15:01:39.905Z,26.30
2017-08-29T15:04:05.925Z,26.30
2017-08-29T15:06:31.923Z,26.30
2017-08-29T15:08:57.964Z,26.30
2017-08-29T15:11:23.992Z,26.30
2017-08-29T15:13:49.997Z,26.30
2017-08-29T15:16:16.068Z,26.20
2017-08-29T15:18:42.077Z,26.10
2017-08-29T15:21:08.091Z,26.10
2017-08-29T15:23:34.191Z,26.00
2017-08-29T15:26:00.228Z,26.00
2017-08-29T15:28:26.244Z,25.90
2017-08-29T15:30:52.294Z,25.90
2017-08-29T15:33:18.296Z,25.80
2017-08-29T15:35:44.314Z,25.90
2017-08-29T15:38:10.692Z,26.00
2017-08-29T15:40:36.705Z,26.00
2017-08-29T15:43:02.722Z,25.90
2017-08-29T15:45:29.594Z,25.90
2017-08-29T15:47:55.635Z,25.90
2017-08-29T15:50:21.641Z,25.90
2017-08-29T15:52:47.722Z,25.90
2017-08-29T15:55:13.736Z,25.90
2017-08-29T15:57:39.756Z,26.00
2017-08-29T16:00:05.805Z,26.00
2017-08-29T16:02:31.813Z,26.00
2017-08-29T16:04:57.844Z,25.90
2017-08-29T16:07:24.129Z,25.90
2017-08-29T16:09:50.144Z,25.90
2017-08-29T16:12:16.778Z,25.90
2017-08-29T16:14:42.882Z,25.80
2017-08-29T16:17:08.944Z,25.90
2017-08-29T16:19:34.972Z,25.90
2017-08-29T16:22:01.036Z,26.00
2017-08-29T16:24:27.240Z,25.90
2017-08-29T16:26:53.456Z,25.90
2017-08-29T16:29:19.484Z,25.70
2017-08-29T16:31:45.588Z,25.60
2017-08-29T16:34:11.637Z,25.70
2017-08-29T16:36:38.138Z,25.70
2017-08-29T16:39:04.377Z,25.50
2017-08-29T16:41:30.419Z,25.50
2017-08-29T16:43:56.459Z,25.40
2017-08-29T16:46:22.865Z,25.30
2017-08-29T16:48:48.887Z,25.30
2017-08-29T16:51:14.919Z,25.20
2017-08-29T16:53:40.962Z,25.10
2017-08-29T16:56:06.985Z,25.10
2017-08-29T16:58:33.169Z,25.10
2017-08-29T17:00:59.204Z,25.10
2017-08-29T17:03:25.219Z,25.00
2017-08-29T17:05:51.456Z,25.00
2017-08-29T17:08:17.476Z,24.90
2017-08-29T17:10:43.517Z,24.90
2017-08-29T17:13:09.573Z,24.90
2017-08-29T17:15:35.585Z,24.80
2017-08-29T17:18:01.617Z,24.70
2017-08-29T17:20:27.981Z,24.70
2017-08-29T17:22:54.023Z,24.60
2017-08-29T17:25:20.057Z,24.60
2017-08-29T17:27:46.121Z,24.50
2017-08-29T17:30:12.153Z,24.50
2017-08-29T17:32:38.192Z,24.50
2017-08-29T17:35:04.522Z,24.50
2017-08-29T17:37:30.793Z,24.40
2017-08-29T17:39:56.805Z,24.40
2017-08-29T17:42:22.833Z,24.30
2017-08-29T17:44:48.913Z,24.30
2017-08-29T17:47:15.329Z,24.20
2017-08-29T17:49:41.334Z,24.20
2017-08-29T17:52:07.377Z,24.20
2017-08-29T17:54:33.402Z,24.10
2017-08-29T17:56:59.439Z,24.10
2017-08-29T17:59:25.485Z,24.10
2017-08-29T18:01:51.528Z,24.10
2017-08-29T18:04:17.550Z,24.00
2017-08-29T18:06:43.563Z,24.00
2017-08-29T18:09:09.643Z,23.90
2017-08-29T18:11:35.661Z,23.90
2017-08-29T18:14:01.685Z,23.90
2017-08-29T18:16:27.704Z,23.80
2017-08-29T18:18:53.765Z,23.80
2017-08-29T18:21:19.804Z,23.70
2017-08-29T18:23:45.830Z,23.60
2017-08-29T18:26:11.927Z,23.60
2017-08-29T18:28:37.935Z,23.50
2017-08-29T18:31:03.959Z,23.50
2017-08-29T18:33:30.255Z,23.50
2017-08-29T18:35:56.280Z,23.40
2017-08-29T18:38:22.296Z,23.40
2017-08-29T18:40:48.538Z,23.30
2017-08-29T18:43:14.583Z,23.20
2017-08-29T18:45:40.677Z,23.20
2017-08-29T18:48:06.734Z,23.20
2017-08-29T18:50:32.985Z,23.10
2017-08-29T18:52:59.078Z,23.10
2017-08-29T18:55:25.311Z,23.10
2017-08-29T18:57:51.346Z,23.00
2017-08-29T19:00:17.625Z,23.00
2017-08-29T19:02:43.646Z,22.90
2017-08-29T19:05:09.691Z,22.90
2017-08-29T19:07:36.097Z,22.80
2017-08-29T19:10:02.186Z,22.80
2017-08-29T19:12:28.277Z,22.80
2017-08-29T19:14:54.560Z,22.70
2017-08-29T19:17:20.771Z,22.70
2017-08-29T19:19:46.792Z,22.70
2017-08-29T19:22:12.879Z,22.70
2017-08-29T19:24:38.940Z,22.60
2017-08-29T19:27:05.023Z,22.60
2017-08-29T19:29:31.206Z,22.50
2017-08-29T19:31:57.221Z,22.50
2017-08-29T19:34:24.282Z,22.40
2017-08-29T19:36:50.689Z,22.40
2017-08-29T19:39:16.732Z,22.30
2017-08-29T19:41:42.753Z,22.30
2017-08-29T19:44:09.054Z,22.30
2017-08-29T19:46:35.070Z,22.30
2017-08-29T19:49:01.126Z,22.20
2017-08-29T19:51:27.215Z,22.30
2017-08-29T19:53:53.260Z,22.20
2017-08-29T19:56:19.294Z,22.20
2017-08-29T19:58:49.196Z,22.30
2017-08-29T20:01:15.322Z,22.30
2017-08-29T20:03:41.343Z,22.40
2017-08-29T20:06:07.437Z,22.40
2017-08-29T20:08:33.466Z,22.40
2017-08-29T20:10:59.511Z,22.50
2017-08-29T20:13:25.558Z,22.60
2017-08-29T20:15:51.573Z,22.60
2017-08-29T20:18:17.577Z,22.60
2017-08-29T20:20:43.664Z,22.60
2017-08-29T20:23:09.706Z,22.60
2017-08-29T20:25:35.727Z,22.50
2017-08-29T20:28:01.779Z,22.50
2017-08-29T20:30:27.800Z,22.40
2017-08-29T20:32:53.810Z,22.30
2017-08-29T20:35:20.133Z,22.20
2017-08-29T20:37:46.156Z,22.20
2017-08-29T20:40:12.196Z,22.10
2017-08-29T20:42:38.299Z,22.10
2017-08-29T20:45:04.381Z,22.10
2017-08-29T20:47:30.409Z,22.00
2017-08-29T20:49:56.445Z,22.00
2017-08-29T20:52:22.492Z,22.00
2017-08-29T20:54:48.547Z,22.00
2017-08-29T20:57:14.578Z,22.00
2017-08-29T20:59:40.617Z,22.00
2017-08-29T21:02:06.708Z,21.90
2017-08-29T21:04:32.761Z,21.90
2017-08-29T21:06:58.829Z,21.90
2017-08-29T21:09:24.864Z,21.80
2017-08-29T21:11:50.920Z,21.90
2017-08-29T21:14:16.954Z,21.90
2017-08-29T21:16:43.007Z,21.90
2017-08-29T21:19:09.001Z,22.00
2017-08-29T21:21:35.034Z,22.00
2017-08-29T21:24:01.060Z,22.00
2017-08-29T21:26:27.074Z,22.00
2017-08-29T21:28:53.102Z,22.00
2017-08-29T21:31:19.186Z,21.90
2017-08-29T21:33:45.205Z,21.90
2017-08-29T21:36:11.223Z,21.90
2017-08-29T21:38:37.268Z,21.80
2017-08-29T21:41:03.278Z,21.80
2017-08-29T21:43:29.313Z,21.80
2017-08-29T21:45:55.371Z,21.80
2017-08-29T21:48:21.429Z,21.80
2017-08-29T21:50:47.528Z,21.70
2017-08-29T21:53:13.553Z,21.70
2017-08-29T21:55:39.553Z,21.60
2017-08-29T21:58:05.555Z,21.50
2017-08-29T22:00:31.653Z,21.40
2017-08-29T22:02:57.734Z,21.30
2017-08-29T22:05:23.773Z,21.30
2017-08-29T22:10:23.075Z,21.20
2017-08-29T22:12:49.350Z,21.10
2017-08-29T22:15:15.437Z,21.10
2017-08-29T22:17:41.557Z,21.10
2017-08-29T22:20:08.088Z,21.10
2017-08-29T22:22:34.257Z,21.20
2017-08-29T22:25:00.426Z,21.20
2017-08-29T22:27:26.532Z,21.10
2017-08-29T22:29:52.786Z,21.10
2017-08-29T22:32:18.915Z,21.10
2017-08-29T22:34:45.197Z,21.10
2017-08-29T22:37:11.418Z,21.10
2017-08-29T22:39:37.579Z,21.10
2017-08-29T22:42:03.628Z,21.10
2017-08-29T22:44:29.660Z,21.10
2017-08-29T22:46:55.696Z,21.10
2017-08-29T22:49:22.043Z,21.00
2017-08-29T22:51:48.048Z,20.90
2017-08-29T22:54:14.068Z,20.90
2017-08-29T22:56:40.108Z,20.80
2017-08-29T22:59:06.140Z,20.80
2017-08-29T23:01:32.162Z,20.80
2017-08-29T23:03:58.364Z,20.70
2017-08-29T23:06:24.409Z,20.70
2017-08-29T23:08:50.443Z,20.80
2017-08-29T23:11:16.842Z,20.80
2017-08-29T23:13:42.853Z,20.80
2017-08-29T23:16:08.888Z,20.80
2017-08-29T23:18:34.904Z,20.80
2017-08-29T23:21:00.931Z,20.80
2017-08-29T23:23:26.947Z,20.80
2017-08-29T23:25:53.409Z,20.90
2017-08-29T23:28:19.441Z,20.90
2017-08-29T23:30:45.452Z,20.80
2017-08-29T23:33:11.473Z,20.80
2017-08-29T23:35:37.506Z,20.80
2017-08-29T23:38:03.514Z,20.80
2017-08-29T23:40:29.530Z,20.70
2017-08-29T23:42:55.540Z,20.70
2017-08-29T23:45:21.631Z,20.80
2017-08-29T23:47:47.662Z,20.70
2017-08-29T23:50:13.706Z,20.70
2017-08-29T23:52:39.759Z,20.70
2017-08-29T23:55:05.841Z,20.60
2017-08-29T23:57:31.873Z,20.60
2017-08-29T23:59:57.908Z,20.60
